Ana Sayfa
METAR-TAF:

METAR-TAF

Havaalanları :

USC Campus Downtown

Los Angeles, Kaliforniya, Amerika Birleşik Devletleri

Enlem: 34-01N, Boylam: 118-17W, yükseklik: 56 m

Güncel hava durumu gözlemi

Rapor saat 00:52 UTC de 53 dakika önce yapıldı.
Rüzgar değişken yönden 5 kt
Sıcaklık 17°C
Nem 59%
Basınç 1021 hPa
Görüş mesafesi: 16.1 km
5500 ft yükseklikte parçalı çok bulutlu

METAR: KCQT 220052Z AUTO VRB05KT 10SM BKN055 17/09 A3014 RMK AO2 SLP206 T01670089

Saat: 17:45 (01:45 UTC)


TAF: eksik

4.000'den fazla havaalanı için hava durumu gözlemleri ve tahminleri (METAR ve TAF raporları).

Kullanılabilir istasyonlar harita üzerinde sarı ve kırmızı noktalarla gösterilir.

İstasyonun adını görmek için fareyi noktanın üzerinde gezdirin.

Sonrasında hava gözlem ve tahminlerini görmek için tıklayın.

Haritayı değiştirmek için: yaklaştırmak için siyah artı işaretli yeşil düğmeye ve uzaklaştırmak için de eksi işaretli düğmeye hızla tıklayın; bitişik haritalar için yeşil okları kullanın.


METAR-TAF: